Time;durP1;ratioP1;P1;durP2;ratioP2;P2;SDS_P1;SDS_P2;PMS_P1;PMS_P2;Temp;Humidity;BMP_temperature;BMP_pressure;BME280_temperature;BME280_humidity;BME280_pressure;Samples;Min_cycle;Max_cycle;Signal;HPM_P1;HPM_P2
2022/01/19 00:01:17;;;;;;;13.23;5.03;;;;;;;;;;5012278;28;20443;-71
2022/01/19 00:03:43;;;;;;;12.80;4.10;;;;;;;;;;5001620;28;20449;-71
2022/01/19 00:06:08;;;;;;;13.70;4.55;;;;;;;;;;4990816;28;20463;-72
2022/01/19 00:08:34;;;;;;;14.25;5.05;;;;;;;;;;4990702;28;20517;-71
2022/01/19 00:10:59;;;;;;;11.48;4.63;;;;;;;;;;4990605;28;20033;-71
2022/01/19 00:13:25;;;;;;;12.23;4.97;;;;;;;;;;4989519;28;20132;-71
2022/01/19 00:15:51;;;;;;;18.88;5.93;;;;;;;;;;4991148;28;20330;-71
2022/01/19 00:18:19;;;;;;;13.93;4.75;;;;;;;;;;4989832;28;20079;-71
2022/01/19 00:20:45;;;;;;;12.05;5.00;;;;;;;;;;4989084;28;20088;-71
2022/01/19 00:23:11;;;;;;;12.18;5.25;;;;;;;;;;4972460;28;20400;-71
2022/01/19 00:25:37;;;;;;;14.68;5.05;;;;;;;;;;4989228;28;20380;-71
2022/01/19 00:28:03;;;;;;;21.55;5.63;;;;;;;;;;4989185;28;20037;-71
2022/01/19 00:30:28;;;;;;;14.38;4.47;;;;;;;;;;4988993;28;20439;-71
2022/01/19 00:32:54;;;;;;;16.10;5.53;;;;;;;;;;4990582;28;20582;-71
2022/01/19 00:35:19;;;;;;;13.88;6.15;;;;;;;;;;4990229;28;20025;-71
2022/01/19 00:37:45;;;;;;;13.00;6.38;;;;;;;;;;4988724;28;20475;-71
2022/01/19 00:40:13;;;;;;;13.25;5.57;;;;;;;;;;4988707;28;20448;-71
2022/01/19 00:42:38;;;;;;;20.38;6.45;;;;;;;;;;4989645;28;20033;-71
2022/01/19 00:45:04;;;;;;;13.32;5.30;;;;;;;;;;4990416;28;20047;-71
2022/01/19 00:47:30;;;;;;;16.73;6.68;;;;;;;;;;4988132;28;20351;-72
2022/01/19 00:49:55;;;;;;;15.43;6.03;;;;;;;;;;4972991;28;20347;-72
2022/01/19 00:52:21;;;;;;;18.75;6.80;;;;;;;;;;4988776;28;20323;-71
2022/01/19 00:54:47;;;;;;;17.60;6.20;;;;;;;;;;4990230;28;20114;-71
2022/01/19 00:57:12;;;;;;;15.60;6.05;;;;;;;;;;4988746;28;20403;-72
2022/01/19 00:59:37;;;;;;;18.40;5.90;;;;;;;;;;4988265;28;20584;-71
2022/01/19 01:02:03;;;;;;;18.90;8.02;;;;;;;;;;4974582;28;20440;-71
2022/01/19 01:04:29;;;;;;;15.10;6.50;;;;;;;;;;4988233;28;20414;-72
2022/01/19 01:06:54;;;;;;;21.30;7.13;;;;;;;;;;4988526;28;20117;-72
2022/01/19 01:09:20;;;;;;;16.08;6.50;;;;;;;;;;4989690;28;20475;-71
2022/01/19 01:12:41;;;;;;;20.15;6.82;;;;;;;;;;4990210;28;20444;-71
2022/01/19 01:20:05;;;;;;;15.15;6.32;;;;;;;;;;4988234;28;20450;-71
2022/01/19 01:22:30;;;;;;;17.63;6.75;;;;;;;;;;4990071;28;20440;-71
2022/01/19 01:24:56;;;;;;;19.77;6.43;;;;;;;;;;4989771;28;20488;-72
2022/01/19 01:27:21;;;;;;;18.50;7.28;;;;;;;;;;4989292;28;20348;-72
2022/01/19 01:29:47;;;;;;;18.90;7.32;;;;;;;;;;4989932;28;20447;-71
2022/01/19 01:32:12;;;;;;;19.27;7.30;;;;;;;;;;4988195;28;20448;-71
2022/01/19 01:34:37;;;;;;;15.65;5.95;;;;;;;;;;4971606;28;20090;-71
2022/01/19 01:37:03;;;;;;;12.43;5.65;;;;;;;;;;4971792;28;20462;-71
2022/01/19 01:39:28;;;;;;;16.80;6.05;;;;;;;;;;4989625;28;20439;-72
2022/01/19 01:41:54;;;;;;;15.13;6.80;;;;;;;;;;4987252;28;20464;-71
2022/01/19 01:44:19;;;;;;;26.35;7.65;;;;;;;;;;4987731;28;20072;-71
2022/01/19 01:46:49;;;;;;;18.50;6.63;;;;;;;;;;4988857;28;20432;-71
2022/01/19 01:49:22;;;;;;;23.30;7.00;;;;;;;;;;4987570;28;20506;-71
2022/01/19 01:54:32;;;;;;;20.88;6.63;;;;;;;;;;4989498;28;20517;-71
2022/01/19 01:56:57;;;;;;;20.02;7.05;;;;;;;;;;4989551;28;20432;-71
2022/01/19 01:59:23;;;;;;;20.23;7.88;;;;;;;;;;4989908;28;20356;-71
2022/01/19 02:01:48;;;;;;;21.42;7.97;;;;;;;;;;4987383;28;20415;-71
2022/01/19 02:04:13;;;;;;;18.42;6.88;;;;;;;;;;5010476;28;20455;-71
2022/01/19 02:07:03;;;;;;;20.55;7.28;;;;;;;;;;5028278;28;20050;-71
2022/01/19 02:09:32;;;;;;;16.58;7.03;;;;;;;;;;5028534;28;20040;-72
2022/01/19 02:23:22;;;;;;;17.83;6.75;;;;;;;;;;5014338;28;20414;-71
2022/01/19 02:25:53;;;;;;;22.45;7.85;;;;;;;;;;5031335;28;20058;-72
2022/01/19 02:41:37;;;;;;;17.25;7.10;;;;;;;;;;5032866;28;20496;-71
2022/01/19 02:44:03;;;;;;;18.10;7.07;;;;;;;;;;5014233;28;20028;-72
2022/01/19 02:49:17;;;;;;;18.75;7.93;;;;;;;;;;5032286;28;20472;-71
2022/01/19 02:51:46;;;;;;;;;;;;;;;;;;5032946;28;20440;-71
2022/01/19 02:54:21;;;;;;;20.80;7.25;;;;;;;;;;5013837;28;20330;-71
2022/01/19 02:56:51;;;;;;;18.30;7.28;;;;;;;;;;5014515;28;20369;-71
2022/01/19 02:59:27;;;;;;;14.50;7.55;;;;;;;;;;5032466;28;20082;-72
2022/01/19 03:10:04;;;;;;;23.40;7.25;;;;;;;;;;5016386;28;20375;-71
2022/01/19 03:12:30;;;;;;;19.30;7.72;;;;;;;;;;5031279;28;20028;-71
2022/01/19 03:14:56;;;;;;;19.80;7.55;;;;;;;;;;5032954;28;20360;-71
2022/01/19 03:17:24;;;;;;;21.05;7.68;;;;;;;;;;5013755;28;20480;-71
2022/01/19 03:19:50;;;;;;;19.27;7.07;;;;;;;;;;5013058;28;20411;-72
2022/01/19 03:22:18;;;;;;;25.63;8.85;;;;;;;;;;5013479;28;20657;-71
2022/01/19 03:24:49;;;;;;;18.75;7.38;;;;;;;;;;5031188;28;20454;-71
2022/01/19 03:27:15;;;;;;;24.15;7.07;;;;;;;;;;5031437;28;20560;-71
2022/01/19 03:29:40;;;;;;;19.35;6.93;;;;;;;;;;5013079;28;20430;-71
2022/01/19 03:32:06;;;;;;;17.55;7.10;;;;;;;;;;5032156;28;20092;-72
2022/01/19 03:34:32;;;;;;;15.68;5.82;;;;;;;;;;5013542;28;20397;-71
2022/01/19 03:36:57;;;;;;;17.30;7.68;;;;;;;;;;5013223;28;20388;-71
2022/01/19 03:39:22;;;;;;;19.30;7.78;;;;;;;;;;5030916;28;20415;-72
2022/01/19 03:41:48;;;;;;;19.33;8.05;;;;;;;;;;5031514;28;20051;-71
2022/01/19 03:44:13;;;;;;;18.42;7.25;;;;;;;;;;5031181;28;20449;-72
2022/01/19 03:46:53;;;;;;;19.58;7.10;;;;;;;;;;5012737;28;20312;-71
2022/01/19 03:49:24;;;;;;;20.85;7.55;;;;;;;;;;5030834;28;20355;-71
2022/01/19 03:51:49;;;;;;;17.88;7.60;;;;;;;;;;5030558;28;20340;-71
2022/01/19 03:54:14;;;;;;;18.58;6.97;;;;;;;;;;5032356;28;20028;-71
2022/01/19 03:56:41;;;;;;;20.38;7.78;;;;;;;;;;5012275;28;20458;-72
2022/01/19 03:59:06;;;;;;;17.77;6.72;;;;;;;;;;5012919;28;20367;-71
2022/01/19 04:01:31;;;;;;;21.65;7.22;;;;;;;;;;5030604;28;20433;-71
2022/01/19 04:09:22;;;;;;;19.35;7.78;;;;;;;;;;4991332;28;20455;-71
2022/01/19 04:11:47;;;;;;;22.23;7.85;;;;;;;;;;4989147;28;20108;-71
2022/01/19 04:14:21;;;;;;;21.95;7.03;;;;;;;;;;4990808;28;20024;-72
2022/01/19 04:17:08;;;;;;;18.10;6.20;;;;;;;;;;4990655;28;20037;-72
2022/01/19 04:22:03;;;;;;;21.98;7.10;;;;;;;;;;4989290;28;20474;-72
2022/01/19 04:24:29;;;;;;;19.13;6.18;;;;;;;;;;4989098;28;20048;-72
2022/01/19 04:29:41;;;;;;;20.48;6.38;;;;;;;;;;4990725;28;20459;-71
2022/01/19 04:32:12;;;;;;;18.60;6.57;;;;;;;;;;4990401;28;20432;-71
2022/01/19 04:34:39;;;;;;;17.30;7.35;;;;;;;;;;4990288;28;20104;-71
2022/01/19 05:01:44;;;;;;;15.15;6.57;;;;;;;;;;4989558;28;20428;-71
2022/01/19 05:06:48;;;;;;;18.98;6.60;;;;;;;;;;5013017;28;20032;-73
2022/01/19 05:09:51;;;;;;;23.85;6.95;;;;;;;;;;5029266;28;20435;-71
2022/01/19 05:14:55;;;;;;;15.88;5.90;;;;;;;;;;5029243;28;20050;-71
2022/01/19 05:17:20;;;;;;;15.77;6.07;;;;;;;;;;5028900;28;20434;-71
2022/01/19 05:19:45;;;;;;;12.13;5.45;;;;;;;;;;5028889;28;20414;-72
2022/01/19 05:22:11;;;;;;;14.88;6.68;;;;;;;;;;5029719;28;20307;-72
2022/01/19 05:24:36;;;;;;;18.55;7.00;;;;;;;;;;5029281;28;20415;-71
2022/01/19 05:27:01;;;;;;;21.27;6.15;;;;;;;;;;5030489;28;20459;-71
2022/01/19 05:29:27;;;;;;;12.95;5.97;;;;;;;;;;5028886;28;20490;-71
2022/01/19 05:31:52;;;;;;;16.55;6.25;;;;;;;;;;5011373;28;20024;-72
2022/01/19 05:34:17;;;;;;;14.73;5.95;;;;;;;;;;5028643;28;20345;-72
2022/01/19 05:36:43;;;;;;;18.35;6.97;;;;;;;;;;5029068;28;20393;-71
2022/01/19 05:39:08;;;;;;;16.50;6.07;;;;;;;;;;5030006;28;20415;-71
2022/01/19 05:41:33;;;;;;;15.88;5.78;;;;;;;;;;5029015;28;20099;-71
2022/01/19 05:43:59;;;;;;;18.30;5.85;;;;;;;;;;5030234;28;20300;-73
2022/01/19 05:46:24;;;;;;;18.08;6.50;;;;;;;;;;5029114;28;20569;-71
2022/01/19 05:48:50;;;;;;;15.00;5.45;;;;;;;;;;5010869;28;20438;-71
2022/01/19 05:51:15;;;;;;;14.48;6.15;;;;;;;;;;5028890;28;20385;-71
2022/01/19 05:53:41;;;;;;;16.48;6.30;;;;;;;;;;5029221;28;20522;-71
2022/01/19 05:56:06;;;;;;;18.63;6.43;;;;;;;;;;5010143;28;20477;-72
2022/01/19 05:58:32;;;;;;;16.10;5.88;;;;;;;;;;4932001;28;20108;-72
2022/01/19 06:00:57;;;;;;;18.35;6.38;;;;;;;;;;4988239;28;20349;-71
2022/01/19 06:03:22;;;;;;;15.35;5.75;;;;;;;;;;4986977;28;20440;-71
2022/01/19 06:05:48;;;;;;;17.02;7.13;;;;;;;;;;4987597;28;20309;-72
2022/01/19 06:09:00;;;;;;;21.00;7.93;;;;;;;;;;4988910;28;20438;-71
2022/01/19 06:10:59;;;;;;;18.27;6.40;;;;;;;;;;4987646;28;20459;-72
2022/01/19 06:13:25;;;;;;;18.77;5.93;;;;;;;;;;4987479;28;20471;-71
2022/01/19 06:15:50;;;;;;;17.73;7.25;;;;;;;;;;4988716;28;20425;-71
2022/01/19 06:18:17;;;;;;;16.70;6.95;;;;;;;;;;4989323;28;20422;-71
2022/01/19 06:20:43;;;;;;;14.07;6.30;;;;;;;;;;4987074;28;20425;-72
2022/01/19 06:23:08;;;;;;;16.17;7.07;;;;;;;;;;4987566;28;20060;-71
2022/01/19 06:25:34;;;;;;;19.23;6.72;;;;;;;;;;4987692;28;20029;-72
2022/01/19 06:28:00;;;;;;;19.40;7.72;;;;;;;;;;4987161;28;20486;-71
2022/01/19 06:30:26;;;;;;;16.45;6.65;;;;;;;;;;4989276;28;20366;-72
2022/01/19 06:32:51;;;;;;;20.20;6.93;;;;;;;;;;4987045;28;20025;-71
2022/01/19 06:35:17;;;;;;;20.90;7.75;;;;;;;;;;4989180;28;20412;-71
2022/01/19 06:37:42;;;;;;;20.23;7.18;;;;;;;;;;4987278;28;20394;-71
2022/01/19 06:40:09;;;;;;;17.17;7.22;;;;;;;;;;4988728;28;20449;-71
2022/01/19 06:42:35;;;;;;;22.35;7.85;;;;;;;;;;4988445;28;20432;-72
2022/01/19 06:45:02;;;;;;;18.55;7.00;;;;;;;;;;4988457;28;20417;-74
2022/01/19 06:47:27;;;;;;;15.15;6.93;;;;;;;;;;4988003;28;20329;-72
2022/01/19 06:49:53;;;;;;;23.58;6.90;;;;;;;;;;4987189;28;20344;-72
2022/01/19 06:52:18;;;;;;;18.23;6.65;;;;;;;;;;4970738;28;20302;-71
2022/01/19 06:54:43;;;;;;;19.23;7.43;;;;;;;;;;4988640;28;20317;-72
2022/01/19 06:57:09;;;;;;;20.17;7.85;;;;;;;;;;4989485;28;20322;-71
2022/01/19 06:59:34;;;;;;;18.60;7.65;;;;;;;;;;4989093;28;20416;-72
2022/01/19 07:01:59;;;;;;;18.08;7.57;;;;;;;;;;4988226;28;20489;-71
2022/01/19 07:04:25;;;;;;;20.75;7.57;;;;;;;;;;4988024;28;20502;-72
2022/01/19 07:06:50;;;;;;;14.30;7.03;;;;;;;;;;4990289;28;20325;-71
2022/01/19 07:09:15;;;;;;;21.85;8.57;;;;;;;;;;4988886;28;20309;-71
2022/01/19 07:11:41;;;;;;;14.68;6.25;;;;;;;;;;4991677;28;20462;-72
2022/01/19 07:14:08;;;;;;;22.27;8.48;;;;;;;;;;4990159;28;20337;-71
2022/01/19 07:16:34;;;;;;;20.02;9.25;;;;;;;;;;4990646;28;20025;-71
2022/01/19 07:18:59;;;;;;;16.85;7.55;;;;;;;;;;4990944;28;20489;-72
2022/01/19 07:21:24;;;;;;;21.05;6.88;;;;;;;;;;4992737;28;20363;-71
2022/01/19 07:23:50;;;;;;;20.23;8.15;;;;;;;;;;4992740;28;20447;-71
2022/01/19 07:26:15;;;;;;;20.58;8.13;;;;;;;;;;4989979;28;20496;-71
2022/01/19 07:28:40;;;;;;;25.85;9.07;;;;;;;;;;4991366;28;20351;-72
2022/01/19 07:31:06;;;;;;;19.88;7.60;;;;;;;;;;4992449;28;20025;-71
2022/01/19 07:33:31;;;;;;;17.75;7.22;;;;;;;;;;4990168;28;20174;-71
2022/01/19 07:35:57;;;;;;;23.25;8.65;;;;;;;;;;4990117;28;20499;-71
2022/01/19 07:38:23;;;;;;;18.67;8.15;;;;;;;;;;4989779;28;20021;-71
2022/01/19 07:40:51;;;;;;;18.42;8.00;;;;;;;;;;4991579;28;20632;-71
2022/01/19 07:43:16;;;;;;;22.85;8.85;;;;;;;;;;4990106;28;20444;-71
2022/01/19 07:45:42;;;;;;;21.80;8.07;;;;;;;;;;4990716;28;20452;-71
2022/01/19 07:48:07;;;;;;;23.45;9.82;;;;;;;;;;4991673;28;20482;-71
2022/01/19 07:50:32;;;;;;;22.40;8.02;;;;;;;;;;5006630;28;20476;-71
2022/01/19 07:52:58;;;;;;;23.52;7.60;;;;;;;;;;4991573;28;20396;-72
2022/01/19 07:55:24;;;;;;;22.20;7.90;;;;;;;;;;4989780;28;20475;-72
2022/01/19 07:57:51;;;;;;;21.02;7.72;;;;;;;;;;4991531;28;20470;-71
2022/01/19 08:00:17;;;;;;;21.90;8.63;;;;;;;;;;4990055;28;20130;-71
2022/01/19 08:02:44;;;;;;;23.20;9.43;;;;;;;;;;4989996;28;20435;-71
2022/01/19 08:05:09;;;;;;;20.13;8.65;;;;;;;;;;4990516;28;20081;-71
2022/01/19 08:07:35;;;;;;;27.05;8.60;;;;;;;;;;4991190;28;20124;-72
2022/01/19 08:10:02;;;;;;;23.05;8.98;;;;;;;;;;4990855;28;20413;-73
2022/01/19 08:12:28;;;;;;;21.17;8.05;;;;;;;;;;4990739;28;20455;-72
2022/01/19 08:14:53;;;;;;;21.13;9.23;;;;;;;;;;4991255;28;20409;-72
2022/01/19 08:17:19;;;;;;;26.13;8.88;;;;;;;;;;4989214;28;20459;-71
2022/01/19 08:19:45;;;;;;;22.52;8.50;;;;;;;;;;5005641;28;20456;-71
2022/01/19 08:22:10;;;;;;;21.10;8.77;;;;;;;;;;4988211;28;20491;-71
2022/01/19 08:24:35;;;;;;;21.13;8.57;;;;;;;;;;4989667;28;20051;-71
2022/01/19 08:27:00;;;;;;;21.92;8.50;;;;;;;;;;4990489;28;20128;-71
2022/01/19 08:29:26;;;;;;;20.20;7.72;;;;;;;;;;4988908;28;20329;-72
2022/01/19 08:31:52;;;;;;;20.90;7.63;;;;;;;;;;4989407;28;20347;-71
2022/01/19 08:34:17;;;;;;;23.00;8.20;;;;;;;;;;4991175;28;20436;-70
2022/01/19 08:36:44;;;;;;;21.48;7.53;;;;;;;;;;4990245;28;20458;-71
2022/01/19 08:39:09;;;;;;;21.00;7.32;;;;;;;;;;4990404;28;20394;-70
2022/01/19 08:41:35;;;;;;;19.33;8.77;;;;;;;;;;4990551;28;20029;-71
2022/01/19 08:44:00;;;;;;;22.77;8.52;;;;;;;;;;4988520;28;20442;-71
2022/01/19 08:46:26;;;;;;;26.45;7.80;;;;;;;;;;4990671;28;20432;-71
2022/01/19 08:48:51;;;;;;;22.40;7.60;;;;;;;;;;4991368;28;20408;-72
2022/01/19 08:51:16;;;;;;;20.67;8.02;;;;;;;;;;4990107;28;20332;-71
2022/01/19 08:53:42;;;;;;;14.73;6.55;;;;;;;;;;4990168;28;20402;-71
2022/01/19 08:56:08;;;;;;;17.95;8.05;;;;;;;;;;4989901;28;20422;-71
2022/01/19 08:58:34;;;;;;;14.07;6.55;;;;;;;;;;4990886;28;20352;-71
2022/01/19 09:00:59;;;;;;;17.60;7.22;;;;;;;;;;4988463;28;20355;-71
2022/01/19 09:03:25;;;;;;;25.08;8.27;;;;;;;;;;4970925;28;20452;-71
2022/01/19 09:05:50;;;;;;;20.90;7.10;;;;;;;;;;4984313;28;20329;-70
2022/01/19 09:08:15;;;;;;;20.77;8.32;;;;;;;;;;4970085;28;20391;-70
2022/01/19 09:10:41;;;;;;;22.85;10.10;;;;;;;;;;4968707;28;20367;-71
2022/01/19 09:13:10;;;;;;;24.88;8.90;;;;;;;;;;4970167;28;20444;-71
2022/01/19 09:15:35;;;;;;;30.83;8.98;;;;;;;;;;4969913;28;20387;-71
2022/01/19 09:18:01;;;;;;;20.98;9.48;;;;;;;;;;4968553;28;20194;-70
2022/01/19 09:20:26;;;;;;;24.33;8.20;;;;;;;;;;4968894;28;20461;-71
2022/01/19 09:22:51;;;;;;;22.80;9.52;;;;;;;;;;4967671;28;20057;-70
2022/01/19 09:25:17;;;;;;;23.00;9.40;;;;;;;;;;4951648;28;20392;-71
2022/01/19 09:27:44;;;;;;;24.92;8.95;;;;;;;;;;4966416;28;20408;-71
2022/01/19 09:30:14;;;;;;;35.50;9.70;;;;;;;;;;4965670;28;20392;-71
2022/01/19 09:32:40;;;;;;;23.38;8.10;;;;;;;;;;4969433;28;20033;-71
2022/01/19 09:35:09;;;;;;;28.15;9.02;;;;;;;;;;4968910;28;20364;-71
2022/01/19 09:37:36;;;;;;;27.05;8.75;;;;;;;;;;4967729;28;20429;-71
2022/01/19 09:40:03;;;;;;;22.38;8.90;;;;;;;;;;4969517;28;20412;-71
2022/01/19 09:42:29;;;;;;;34.70;10.10;;;;;;;;;;4911901;28;20448;-71
2022/01/19 09:44:54;;;;;;;27.58;9.30;;;;;;;;;;4982825;28;20514;-71
2022/01/19 09:47:20;;;;;;;18.52;9.57;;;;;;;;;;4969347;28;20471;-72
2022/01/19 09:49:45;;;;;;;27.33;9.15;;;;;;;;;;4969433;28;20456;-71
2022/01/19 09:52:10;;;;;;;29.83;9.73;;;;;;;;;;4951633;28;20444;-71
2022/01/19 09:54:36;;;;;;;15.63;7.82;;;;;;;;;;4969119;28;20431;-72
2022/01/19 09:57:02;;;;;;;19.17;8.57;;;;;;;;;;4969316;28;20368;-71
2022/01/19 09:59:27;;;;;;;20.42;8.93;;;;;;;;;;4968872;28;20467;-71
2022/01/19 10:01:58;;;;;;;22.17;8.82;;;;;;;;;;4970542;28;20395;-71
2022/01/19 10:04:29;;;;;;;21.13;8.85;;;;;;;;;;4968743;28;20537;-71
2022/01/19 10:07:13;;;;;;;25.98;8.98;;;;;;;;;;4968081;28;20049;-70
2022/01/19 10:10:03;;;;;;;18.35;8.25;;;;;;;;;;4969962;28;20429;-72
2022/01/19 10:18:15;;;;;;;22.50;7.75;;;;;;;;;;4947357;28;20041;-71
2022/01/19 10:20:41;;;;;;;19.33;7.85;;;;;;;;;;4967615;28;20328;-71
2022/01/19 10:23:50;;;;;;;21.98;8.30;;;;;;;;;;4968164;28;20104;-71
2022/01/19 10:26:24;;;;;;;22.10;8.05;;;;;;;;;;4965771;28;20481;-71
2022/01/19 10:29:08;;;;;;;14.80;7.03;;;;;;;;;;4968898;28;20431;-71
2022/01/19 10:31:36;;;;;;;27.25;8.40;;;;;;;;;;4969280;28;20428;-71
2022/01/19 10:34:21;;;;;;;17.40;7.18;;;;;;;;;;4969007;28;20030;-71
2022/01/19 10:36:52;;;;;;;19.27;7.38;;;;;;;;;;4968508;28;20309;-71
2022/01/19 10:39:19;;;;;;;16.52;7.63;;;;;;;;;;4967065;28;20451;-71
2022/01/19 10:42:06;;;;;;;18.92;8.38;;;;;;;;;;4968844;28;20512;-72
2022/01/19 10:44:35;;;;;;;26.13;8.82;;;;;;;;;;4967564;28;20410;-71
2022/01/19 10:47:00;;;;;;;20.40;8.23;;;;;;;;;;4972223;28;20440;-71
2022/01/19 10:49:27;;;;;;;20.63;8.45;;;;;;;;;;4970762;28;20321;-72
2022/01/19 10:51:58;;;;;;;21.63;8.35;;;;;;;;;;4971043;28;20420;-71
2022/01/19 10:54:26;;;;;;;19.15;8.40;;;;;;;;;;4971008;28;20033;-71
2022/01/19 10:56:59;;;;;;;26.20;8.40;;;;;;;;;;4971879;28;20392;-71
2022/01/19 10:59:27;;;;;;;18.95;7.40;;;;;;;;;;4972637;28;20325;-71
2022/01/19 11:01:55;;;;;;;20.13;8.00;;;;;;;;;;4972088;28;20372;-72
2022/01/19 11:04:30;;;;;;;16.10;7.57;;;;;;;;;;4972215;28;20447;-71
2022/01/19 11:07:01;;;;;;;20.52;6.88;;;;;;;;;;4970528;28;20317;-71
2022/01/19 11:09:28;;;;;;;16.83;7.55;;;;;;;;;;4973441;28;20161;-71
2022/01/19 11:11:56;;;;;;;13.48;7.65;;;;;;;;;;4970956;28;20429;-71
2022/01/19 11:14:24;;;;;;;17.00;6.70;;;;;;;;;;4973310;28;20074;-71
2022/01/19 11:16:51;;;;;;;17.75;8.68;;;;;;;;;;4971350;28;20321;-72
2022/01/19 11:19:16;;;;;;;13.80;7.65;;;;;;;;;;4970241;28;20514;-71
2022/01/19 11:22:14;;;;;;;14.88;7.05;;;;;;;;;;4971602;28;20433;-72
2022/01/19 11:25:03;;;;;;;17.60;8.30;;;;;;;;;;4972178;28;20456;-71
2022/01/19 11:27:36;;;;;;;15.88;6.90;;;;;;;;;;4970421;28;20448;-72
2022/01/19 11:30:14;;;;;;;15.50;6.60;;;;;;;;;;4970579;28;20357;-71
2022/01/19 11:32:40;;;;;;;15.85;7.32;;;;;;;;;;4971888;28;20352;-72
2022/01/19 11:35:06;;;;;;;14.32;7.38;;;;;;;;;;4970627;28;20029;-71
2022/01/19 11:37:37;;;;;;;18.02;7.22;;;;;;;;;;4970645;28;20415;-72
2022/01/19 11:40:16;;;;;;;16.60;7.68;;;;;;;;;;4970241;28;20458;-73
2022/01/19 11:42:42;;;;;;;15.73;7.22;;;;;;;;;;4970366;28;20052;-72
2022/01/19 11:45:10;;;;;;;19.58;7.55;;;;;;;;;;4970719;28;20441;-72
2022/01/19 11:47:35;;;;;;;15.80;7.32;;;;;;;;;;4971590;28;20025;-72
2022/01/19 11:50:03;;;;;;;15.60;6.40;;;;;;;;;;4971283;28;20437;-72
2022/01/19 11:52:33;;;;;;;14.85;6.80;;;;;;;;;;4971331;28;20423;-72
2022/01/19 11:55:17;;;;;;;14.75;6.47;;;;;;;;;;4971269;28;20423;-72
2022/01/19 11:57:44;;;;;;;14.45;7.47;;;;;;;;;;4970990;28;20341;-72
2022/01/19 12:00:32;;;;;;;16.95;6.82;;;;;;;;;;4970143;28;20433;-72
2022/01/19 12:02:58;;;;;;;15.15;5.97;;;;;;;;;;4969498;28;20391;-72
2022/01/19 12:05:36;;;;;;;19.55;7.30;;;;;;;;;;4969706;28;20064;-72
2022/01/19 12:08:23;;;;;;;18.73;6.78;;;;;;;;;;4883977;28;20526;-71
2022/01/19 12:10:51;;;;;;;14.98;6.38;;;;;;;;;;4971581;28;20364;-72
2022/01/19 12:16:13;;;;;;;13.13;6.38;;;;;;;;;;4971755;28;20380;-72
2022/01/19 12:18:43;;;;;;;14.57;6.45;;;;;;;;;;4969826;28;20340;-72
2022/01/19 12:21:29;;;;;;;12.82;6.32;;;;;;;;;;4971133;28;20433;-71
2022/01/19 12:23:55;;;;;;;10.73;5.82;;;;;;;;;;4961984;28;20476;-72
2022/01/19 12:26:20;;;;;;;14.02;6.18;;;;;;;;;;4969522;28;20433;-72
2022/01/19 12:28:48;;;;;;;13.60;6.22;;;;;;;;;;4969403;28;20171;-72
2022/01/19 12:31:34;;;;;;;15.35;6.07;;;;;;;;;;4970766;28;20414;-72
2022/01/19 12:34:03;;;;;;;12.38;7.10;;;;;;;;;;4969476;28;20317;-71
2022/01/19 12:36:47;;;;;;;16.13;6.00;;;;;;;;;;4970470;28;20033;-72
2022/01/19 12:39:24;;;;;;;15.48;6.30;;;;;;;;;;4970747;28;20459;-71
2022/01/19 12:41:59;;;;;;;13.18;5.75;;;;;;;;;;4969443;28;20380;-72
2022/01/19 12:44:46;;;;;;;12.85;6.25;;;;;;;;;;4970821;28;20566;-72
2022/01/19 12:47:40;;;;;;;14.68;6.72;;;;;;;;;;4970670;28;20540;-73
2022/01/19 12:50:08;;;;;;;14.35;6.38;;;;;;;;;;4965405;28;20100;-72
2022/01/19 12:52:43;;;;;;;12.05;6.53;;;;;;;;;;4968978;28;20431;-72
2022/01/19 12:55:13;;;;;;;12.75;5.57;;;;;;;;;;4970694;28;20044;-72
2022/01/19 12:57:38;;;;;;;14.93;6.03;;;;;;;;;;4970481;28;20444;-73
2022/01/19 13:00:07;;;;;;;13.25;5.85;;;;;;;;;;4970522;28;20440;-72
2022/01/19 13:02:33;;;;;;;15.85;6.45;;;;;;;;;;4970448;28;20408;-72
2022/01/19 13:05:05;;;;;;;15.13;5.47;;;;;;;;;;4968273;28;20403;-72
2022/01/19 13:07:32;;;;;;;15.13;6.50;;;;;;;;;;4970484;28;20459;-74
2022/01/19 13:15:25;;;;;;;25.95;9.23;;;;;;;;;;4948740;28;20401;-72
2022/01/19 13:17:52;;;;;;;15.73;6.47;;;;;;;;;;4949989;28;20357;-72
2022/01/19 13:20:24;;;;;;;14.55;6.53;;;;;;;;;;4948820;28;20452;-73
2022/01/19 13:22:52;;;;;;;13.05;6.45;;;;;;;;;;4951326;28;20345;-71
2022/01/19 13:25:22;;;;;;;19.73;8.40;;;;;;;;;;4949300;28;20030;-72
2022/01/19 13:27:49;;;;;;;15.70;7.00;;;;;;;;;;4950923;28;20409;-72
2022/01/19 13:30:15;;;;;;;23.35;8.00;;;;;;;;;;4948761;28;20419;-73
2022/01/19 13:32:41;;;;;;;13.75;6.28;;;;;;;;;;4948902;28;20469;-72
2022/01/19 13:35:10;;;;;;;11.75;5.97;;;;;;;;;;4949242;28;20519;-72
2022/01/19 13:37:55;;;;;;;18.50;7.10;;;;;;;;;;4948400;28;20357;-71
2022/01/19 13:40:31;;;;;;;18.77;7.28;;;;;;;;;;4948837;28;20034;-72
2022/01/19 13:42:58;;;;;;;14.18;6.20;;;;;;;;;;4948737;28;20319;-71
2022/01/19 13:45:35;;;;;;;18.38;7.20;;;;;;;;;;4932102;28;20369;-73
2022/01/19 13:50:40;;;;;;;16.42;6.72;;;;;;;;;;4950345;28;20468;-72
2022/01/19 13:53:05;;;;;;;20.33;7.60;;;;;;;;;;4948581;28;20045;-72
2022/01/19 13:55:31;;;;;;;14.70;6.90;;;;;;;;;;4950008;28;20034;-72
2022/01/19 13:58:04;;;;;;;16.88;7.47;;;;;;;;;;4949111;28;20091;-72
2022/01/19 14:00:29;;;;;;;18.23;7.20;;;;;;;;;;4949884;28;20341;-72
2022/01/19 14:03:03;;;;;;;16.73;6.47;;;;;;;;;;4949445;28;20084;-72
2022/01/19 14:05:41;;;;;;;18.88;7.95;;;;;;;;;;4947341;28;20365;-72
2022/01/19 14:08:06;;;;;;;13.85;6.40;;;;;;;;;;4948112;28;20457;-72
2022/01/19 14:10:59;;;;;;;13.93;7.45;;;;;;;;;;4931678;28;20499;-72
2022/01/19 14:13:33;;;;;;;16.52;6.53;;;;;;;;;;4943288;28;20069;-72
2022/01/19 14:16:22;;;;;;;14.68;7.40;;;;;;;;;;4948237;28;20030;-71
2022/01/19 14:19:15;;;;;;;11.82;6.38;;;;;;;;;;4948355;28;20464;-73
2022/01/19 14:22:03;;;;;;;15.95;6.80;;;;;;;;;;4953518;28;20461;-72
2022/01/19 14:25:08;;;;;;;14.05;6.40;;;;;;;;;;4952308;28;20487;-72
2022/01/19 14:27:48;;;;;;;18.80;7.35;;;;;;;;;;4953758;28;20080;-72
2022/01/19 14:30:13;;;;;;;17.90;7.82;;;;;;;;;;4953350;28;20404;-72
2022/01/19 14:32:40;;;;;;;16.88;7.25;;;;;;;;;;4953741;28;20058;-72
2022/01/19 14:35:30;;;;;;;15.35;6.53;;;;;;;;;;4953225;28;20030;-72
2022/01/19 14:38:00;;;;;;;15.20;6.38;;;;;;;;;;4935300;28;20588;-72
2022/01/19 14:40:25;;;;;;;17.42;7.20;;;;;;;;;;4954092;28;20397;-72
2022/01/19 14:42:51;;;;;;;14.77;6.80;;;;;;;;;;4953218;28;20405;-72
2022/01/19 14:45:22;;;;;;;17.35;7.10;;;;;;;;;;4953508;28;20361;-71
2022/01/19 14:47:47;;;;;;;15.13;6.57;;;;;;;;;;4953006;28;20361;-72
2022/01/19 14:50:24;;;;;;;15.73;6.60;;;;;;;;;;4951832;28;20319;-72
2022/01/19 14:52:52;;;;;;;16.58;7.78;;;;;;;;;;4951909;28;20445;-72
2022/01/19 14:55:28;;;;;;;16.60;7.72;;;;;;;;;;4952679;28;20383;-71
2022/01/19 14:57:53;;;;;;;15.75;7.60;;;;;;;;;;4952711;28;20467;-72
2022/01/19 15:00:20;;;;;;;16.70;6.88;;;;;;;;;;4951755;28;20368;-73
2022/01/19 15:02:49;;;;;;;17.05;7.80;;;;;;;;;;4953517;28;20433;-71
2022/01/19 15:05:14;;;;;;;16.38;7.38;;;;;;;;;;4950410;28;20503;-71
2022/01/19 15:07:40;;;;;;;16.63;6.55;;;;;;;;;;4952785;28;20414;-72
2022/01/19 15:10:07;;;;;;;18.77;7.32;;;;;;;;;;4952634;28;20099;-72
2022/01/19 15:12:33;;;;;;;19.55;8.55;;;;;;;;;;4935862;28;20322;-71
2022/01/19 15:15:01;;;;;;;15.43;8.15;;;;;;;;;;4951312;28;20421;-72
2022/01/19 15:17:26;;;;;;;15.05;6.78;;;;;;;;;;4951219;28;20053;-72
2022/01/19 15:19:52;;;;;;;18.80;9.30;;;;;;;;;;4953068;28;20026;-72
2022/01/19 15:22:17;;;;;;;15.00;7.13;;;;;;;;;;4952849;28;20410;-72
2022/01/19 15:24:42;;;;;;;19.38;8.55;;;;;;;;;;4953601;28;20452;-72
2022/01/19 15:27:08;;;;;;;14.52;7.78;;;;;;;;;;4952341;28;20026;-72
2022/01/19 15:29:33;;;;;;;19.48;7.82;;;;;;;;;;4952765;28;20038;-72
2022/01/19 15:31:58;;;;;;;17.77;8.80;;;;;;;;;;4951657;28;20096;-72
2022/01/19 15:34:24;;;;;;;19.52;9.10;;;;;;;;;;4952680;28;20049;-72
2022/01/19 15:36:49;;;;;;;16.67;8.07;;;;;;;;;;4952215;28;20480;-72
2022/01/19 15:39:15;;;;;;;20.80;9.15;;;;;;;;;;4952661;28;20455;-71
2022/01/19 15:41:40;;;;;;;17.85;7.63;;;;;;;;;;4952035;28;20326;-72
2022/01/19 15:44:06;;;;;;;20.58;8.98;;;;;;;;;;4951396;28;20431;-72
2022/01/19 15:46:31;;;;;;;19.25;8.32;;;;;;;;;;4951398;28;20424;-71
2022/01/19 15:48:56;;;;;;;19.13;8.43;;;;;;;;;;4951003;28;20413;-72
2022/01/19 15:51:22;;;;;;;23.60;9.18;;;;;;;;;;4950325;28;20314;-72
2022/01/19 15:53:47;;;;;;;17.38;7.88;;;;;;;;;;4951906;28;20042;-71
2022/01/19 15:56:13;;;;;;;18.73;7.63;;;;;;;;;;4952080;28;20117;-71
2022/01/19 15:58:39;;;;;;;20.25;9.00;;;;;;;;;;4950421;28;20384;-71
2022/01/19 16:01:04;;;;;;;20.88;9.07;;;;;;;;;;4951470;28;20441;-72
2022/01/19 16:03:30;;;;;;;20.58;8.95;;;;;;;;;;4951817;28;20475;-71
2022/01/19 16:05:55;;;;;;;17.85;8.20;;;;;;;;;;4951290;28;20408;-71
2022/01/19 16:08:21;;;;;;;25.10;10.40;;;;;;;;;;4951796;28;20448;-71
2022/01/19 16:10:48;;;;;;;22.17;8.90;;;;;;;;;;4951665;28;20353;-71
2022/01/19 16:13:16;;;;;;;22.77;9.25;;;;;;;;;;4950316;28;20434;-71
2022/01/19 16:15:42;;;;;;;19.52;8.43;;;;;;;;;;4950245;28;20361;-72
2022/01/19 16:18:08;;;;;;;18.40;7.95;;;;;;;;;;4950119;28;20437;-71
2022/01/19 16:20:35;;;;;;;20.52;8.57;;;;;;;;;;4949975;28;20321;-71